sensor_id;sensor_type;location;lat;lon;timestamp;P1;durP1;ratioP1;P2;durP2;ratioP2
34204;SDS011;20471;49.680;20.074;2022-10-26T00:03:40;21.60;;;11.88;;
34204;SDS011;20471;49.680;20.074;2022-10-26T00:08:41;19.80;;;12.07;;
34204;SDS011;20471;49.680;20.074;2022-10-26T00:11:08;18.10;;;11.35;;
34204;SDS011;20471;49.680;20.074;2022-10-26T00:13:36;22.20;;;11.55;;
34204;SDS011;20471;49.680;20.074;2022-10-26T00:18:39;24.43;;;13.13;;
34204;SDS011;20471;49.680;20.074;2022-10-26T00:21:06;24.47;;;14.03;;
34204;SDS011;20471;49.680;20.074;2022-10-26T00:23:35;20.62;;;12.07;;
34204;SDS011;20471;49.680;20.074;2022-10-26T00:26:02;22.35;;;11.97;;
34204;SDS011;20471;49.680;20.074;2022-10-26T00:28:30;16.45;;;10.23;;
34204;SDS011;20471;49.680;20.074;2022-10-26T00:31:05;19.25;;;10.78;;
34204;SDS011;20471;49.680;20.074;2022-10-26T00:33:34;12.75;;;9.18;;
34204;SDS011;20471;49.680;20.074;2022-10-26T00:36:00;16.07;;;9.88;;
34204;SDS011;20471;49.680;20.074;2022-10-26T00:38:27;17.42;;;10.75;;
34204;SDS011;20471;49.680;20.074;2022-10-26T00:40:54;18.62;;;10.05;;
34204;SDS011;20471;49.680;20.074;2022-10-26T00:45:56;14.58;;;9.53;;
34204;SDS011;20471;49.680;20.074;2022-10-26T00:48:25;15.88;;;10.03;;
34204;SDS011;20471;49.680;20.074;2022-10-26T00:50:57;15.30;;;9.00;;
34204;SDS011;20471;49.680;20.074;2022-10-26T00:53:28;14.13;;;8.78;;
34204;SDS011;20471;49.680;20.074;2022-10-26T00:55:56;13.30;;;9.10;;
34204;SDS011;20471;49.680;20.074;2022-10-26T00:58:23;13.70;;;8.40;;
34204;SDS011;20471;49.680;20.074;2022-10-26T01:00:51;11.20;;;8.53;;
34204;SDS011;20471;49.680;20.074;2022-10-26T01:03:18;13.48;;;9.18;;
34204;SDS011;20471;49.680;20.074;2022-10-26T01:05:46;18.80;;;8.98;;
34204;SDS011;20471;49.680;20.074;2022-10-26T01:08:15;14.63;;;8.90;;
34204;SDS011;20471;49.680;20.074;2022-10-26T01:10:43;12.78;;;8.60;;
34204;SDS011;20471;49.680;20.074;2022-10-26T01:13:10;20.10;;;10.50;;
34204;SDS011;20471;49.680;20.074;2022-10-26T01:15:55;16.82;;;9.08;;
34204;SDS011;20471;49.680;20.074;2022-10-26T01:18:38;14.93;;;9.13;;
34204;SDS011;20471;49.680;20.074;2022-10-26T01:21:37;15.40;;;10.63;;
34204;SDS011;20471;49.680;20.074;2022-10-26T01:27:26;14.20;;;9.35;;
34204;SDS011;20471;49.680;20.074;2022-10-26T01:36:15;10.23;;;7.78;;
34204;SDS011;20471;49.680;20.074;2022-10-26T01:41:49;12.28;;;8.00;;
34204;SDS011;20471;49.680;20.074;2022-10-26T01:47:14;17.95;;;10.03;;
34204;SDS011;20471;49.680;20.074;2022-10-26T01:49:43;14.05;;;9.78;;
34204;SDS011;20471;49.680;20.074;2022-10-26T01:52:13;13.78;;;9.45;;
34204;SDS011;20471;49.680;20.074;2022-10-26T01:54:40;16.67;;;9.73;;
34204;SDS011;20471;49.680;20.074;2022-10-26T01:57:07;13.05;;;8.85;;
34204;SDS011;20471;49.680;20.074;2022-10-26T02:07:57;13.70;;;8.03;;
34204;SDS011;20471;49.680;20.074;2022-10-26T02:13:40;13.78;;;9.03;;
34204;SDS011;20471;49.680;20.074;2022-10-26T02:22:13;13.65;;;9.08;;
34204;SDS011;20471;49.680;20.074;2022-10-26T02:24:50;14.87;;;9.95;;
34204;SDS011;20471;49.680;20.074;2022-10-26T02:27:20;14.73;;;8.00;;
34204;SDS011;20471;49.680;20.074;2022-10-26T02:29:54;16.25;;;7.72;;
34204;SDS011;20471;49.680;20.074;2022-10-26T02:32:23;9.53;;;7.00;;
34204;SDS011;20471;49.680;20.074;2022-10-26T02:34:54;11.05;;;8.15;;
34204;SDS011;20471;49.680;20.074;2022-10-26T02:37:22;12.50;;;8.83;;
34204;SDS011;20471;49.680;20.074;2022-10-26T02:39:52;14.07;;;8.73;;
34204;SDS011;20471;49.680;20.074;2022-10-26T02:42:20;9.43;;;7.67;;
34204;SDS011;20471;49.680;20.074;2022-10-26T02:44:53;13.45;;;8.60;;
34204;SDS011;20471;49.680;20.074;2022-10-26T02:47:23;10.55;;;7.58;;
34204;SDS011;20471;49.680;20.074;2022-10-26T02:49:51;11.97;;;8.25;;
34204;SDS011;20471;49.680;20.074;2022-10-26T02:55:24;11.03;;;7.95;;
34204;SDS011;20471;49.680;20.074;2022-10-26T03:00:24;9.28;;;6.45;;
34204;SDS011;20471;49.680;20.074;2022-10-26T03:02:57;15.18;;;6.97;;
34204;SDS011;20471;49.680;20.074;2022-10-26T03:05:26;9.88;;;6.78;;
34204;SDS011;20471;49.680;20.074;2022-10-26T03:07:58;12.20;;;5.90;;
34204;SDS011;20471;49.680;20.074;2022-10-26T03:10:26;10.58;;;6.00;;
34204;SDS011;20471;49.680;20.074;2022-10-26T03:12:53;9.53;;;5.47;;
34204;SDS011;20471;49.680;20.074;2022-10-26T03:15:20;6.92;;;4.72;;
34204;SDS011;20471;49.680;20.074;2022-10-26T03:17:46;9.55;;;4.92;;
34204;SDS011;20471;49.680;20.074;2022-10-26T03:20:13;14.13;;;6.33;;
34204;SDS011;20471;49.680;20.074;2022-10-26T03:22:40;17.30;;;6.67;;
34204;SDS011;20471;49.680;20.074;2022-10-26T03:25:07;10.28;;;5.83;;
34204;SDS011;20471;49.680;20.074;2022-10-26T03:27:33;11.05;;;5.60;;
34204;SDS011;20471;49.680;20.074;2022-10-26T03:30:00;12.37;;;6.90;;
34204;SDS011;20471;49.680;20.074;2022-10-26T03:32:27;16.85;;;7.20;;
34204;SDS011;20471;49.680;20.074;2022-10-26T03:34:53;10.03;;;5.00;;
34204;SDS011;20471;49.680;20.074;2022-10-26T03:37:20;8.48;;;4.35;;
34204;SDS011;20471;49.680;20.074;2022-10-26T03:39:47;9.48;;;4.62;;
34204;SDS011;20471;49.680;20.074;2022-10-26T03:42:13;9.43;;;5.42;;
34204;SDS011;20471;49.680;20.074;2022-10-26T03:44:40;8.98;;;4.87;;
34204;SDS011;20471;49.680;20.074;2022-10-26T03:47:06;12.37;;;5.35;;
34204;SDS011;20471;49.680;20.074;2022-10-26T03:49:33;13.22;;;7.60;;
34204;SDS011;20471;49.680;20.074;2022-10-26T03:52:00;14.25;;;7.97;;
34204;SDS011;20471;49.680;20.074;2022-10-26T03:54:27;11.43;;;7.17;;
34204;SDS011;20471;49.680;20.074;2022-10-26T03:56:53;7.83;;;4.95;;
34204;SDS011;20471;49.680;20.074;2022-10-26T03:59:20;7.10;;;4.87;;
34204;SDS011;20471;49.680;20.074;2022-10-26T04:01:46;6.97;;;4.03;;
34204;SDS011;20471;49.680;20.074;2022-10-26T04:04:13;8.80;;;4.78;;
34204;SDS011;20471;49.680;20.074;2022-10-26T04:06:40;6.37;;;4.90;;
34204;SDS011;20471;49.680;20.074;2022-10-26T04:09:06;6.28;;;4.22;;
34204;SDS011;20471;49.680;20.074;2022-10-26T04:11:33;9.55;;;4.83;;
34204;SDS011;20471;49.680;20.074;2022-10-26T04:13:59;7.92;;;4.78;;
34204;SDS011;20471;49.680;20.074;2022-10-26T04:16:26;6.87;;;4.80;;
34204;SDS011;20471;49.680;20.074;2022-10-26T04:18:53;7.50;;;5.00;;
34204;SDS011;20471;49.680;20.074;2022-10-26T04:21:20;8.03;;;6.20;;
34204;SDS011;20471;49.680;20.074;2022-10-26T04:23:46;11.43;;;6.90;;
34204;SDS011;20471;49.680;20.074;2022-10-26T04:26:13;10.70;;;7.42;;
34204;SDS011;20471;49.680;20.074;2022-10-26T04:28:39;11.97;;;7.05;;
34204;SDS011;20471;49.680;20.074;2022-10-26T04:31:06;14.30;;;7.78;;
34204;SDS011;20471;49.680;20.074;2022-10-26T04:33:32;13.70;;;7.37;;
34204;SDS011;20471;49.680;20.074;2022-10-26T04:35:59;9.90;;;7.50;;
34204;SDS011;20471;49.680;20.074;2022-10-26T04:38:26;10.48;;;7.30;;
34204;SDS011;20471;49.680;20.074;2022-10-26T04:40:52;10.35;;;5.97;;
34204;SDS011;20471;49.680;20.074;2022-10-26T04:43:19;10.15;;;5.72;;
34204;SDS011;20471;49.680;20.074;2022-10-26T04:45:45;13.85;;;5.10;;
34204;SDS011;20471;49.680;20.074;2022-10-26T04:48:12;7.08;;;3.87;;
34204;SDS011;20471;49.680;20.074;2022-10-26T04:50:39;9.60;;;4.97;;
34204;SDS011;20471;49.680;20.074;2022-10-26T04:53:06;9.48;;;5.03;;
34204;SDS011;20471;49.680;20.074;2022-10-26T04:55:33;10.10;;;4.65;;
34204;SDS011;20471;49.680;20.074;2022-10-26T04:58:01;9.68;;;4.70;;
34204;SDS011;20471;49.680;20.074;2022-10-26T05:00:27;6.40;;;4.53;;
34204;SDS011;20471;49.680;20.074;2022-10-26T05:03:03;6.97;;;4.42;;
34204;SDS011;20471;49.680;20.074;2022-10-26T05:05:32;6.95;;;4.25;;
34204;SDS011;20471;49.680;20.074;2022-10-26T05:08:01;5.92;;;3.90;;
34204;SDS011;20471;49.680;20.074;2022-10-26T05:10:29;7.62;;;4.17;;
34204;SDS011;20471;49.680;20.074;2022-10-26T05:12:56;6.42;;;3.27;;
34204;SDS011;20471;49.680;20.074;2022-10-26T05:15:25;7.83;;;4.10;;
34204;SDS011;20471;49.680;20.074;2022-10-26T05:17:54;6.62;;;3.37;;
34204;SDS011;20471;49.680;20.074;2022-10-26T05:20:24;7.25;;;3.30;;
34204;SDS011;20471;49.680;20.074;2022-10-26T05:22:54;9.00;;;4.40;;
34204;SDS011;20471;49.680;20.074;2022-10-26T05:25:22;8.45;;;4.78;;
34204;SDS011;20471;49.680;20.074;2022-10-26T05:27:50;13.53;;;6.45;;
34204;SDS011;20471;49.680;20.074;2022-10-26T05:30:16;11.75;;;6.28;;
34204;SDS011;20471;49.680;20.074;2022-10-26T05:32:43;14.85;;;7.50;;
34204;SDS011;20471;49.680;20.074;2022-10-26T05:35:10;13.45;;;7.50;;
34204;SDS011;20471;49.680;20.074;2022-10-26T05:37:36;20.05;;;6.92;;
34204;SDS011;20471;49.680;20.074;2022-10-26T05:40:04;15.10;;;6.75;;
34204;SDS011;20471;49.680;20.074;2022-10-26T05:42:33;23.42;;;8.45;;
34204;SDS011;20471;49.680;20.074;2022-10-26T05:44:59;18.90;;;8.78;;
34204;SDS011;20471;49.680;20.074;2022-10-26T05:47:26;19.77;;;7.92;;
34204;SDS011;20471;49.680;20.074;2022-10-26T05:49:52;17.37;;;8.25;;
34204;SDS011;20471;49.680;20.074;2022-10-26T05:52:19;27.35;;;9.08;;
34204;SDS011;20471;49.680;20.074;2022-10-26T05:54:45;17.40;;;8.10;;
34204;SDS011;20471;49.680;20.074;2022-10-26T05:57:12;13.08;;;6.53;;
34204;SDS011;20471;49.680;20.074;2022-10-26T05:59:39;15.83;;;6.85;;
34204;SDS011;20471;49.680;20.074;2022-10-26T06:05:02;15.03;;;5.95;;
34204;SDS011;20471;49.680;20.074;2022-10-26T06:07:30;14.10;;;5.90;;
34204;SDS011;20471;49.680;20.074;2022-10-26T06:09:58;14.98;;;6.08;;
34204;SDS011;20471;49.680;20.074;2022-10-26T06:12:25;10.78;;;5.53;;
34204;SDS011;20471;49.680;20.074;2022-10-26T06:14:52;12.30;;;5.72;;
34204;SDS011;20471;49.680;20.074;2022-10-26T06:17:32;18.70;;;5.87;;
34204;SDS011;20471;49.680;20.074;2022-10-26T06:23:30;12.75;;;6.08;;
34204;SDS011;20471;49.680;20.074;2022-10-26T06:31:32;17.90;;;8.90;;
34204;SDS011;20471;49.680;20.074;2022-10-26T06:33:59;19.27;;;10.30;;
34204;SDS011;20471;49.680;20.074;2022-10-26T06:36:26;19.17;;;9.83;;
34204;SDS011;20471;49.680;20.074;2022-10-26T06:38:58;19.82;;;11.12;;
34204;SDS011;20471;49.680;20.074;2022-10-26T06:41:29;19.67;;;12.65;;
34204;SDS011;20471;49.680;20.074;2022-10-26T06:44:01;22.07;;;14.47;;
34204;SDS011;20471;49.680;20.074;2022-10-26T06:57:12;21.62;;;11.48;;
34204;SDS011;20471;49.680;20.074;2022-10-26T07:02:16;14.58;;;9.88;;
34204;SDS011;20471;49.680;20.074;2022-10-26T07:04:43;16.77;;;10.80;;
34204;SDS011;20471;49.680;20.074;2022-10-26T07:07:13;13.60;;;7.90;;
34204;SDS011;20471;49.680;20.074;2022-10-26T07:09:46;14.45;;;8.28;;
34204;SDS011;20471;49.680;20.074;2022-10-26T07:12:14;15.28;;;8.70;;
34204;SDS011;20471;49.680;20.074;2022-10-26T07:14:40;14.55;;;7.53;;
34204;SDS011;20471;49.680;20.074;2022-10-26T07:17:07;15.80;;;8.85;;
34204;SDS011;20471;49.680;20.074;2022-10-26T07:19:35;12.85;;;9.05;;
34204;SDS011;20471;49.680;20.074;2022-10-26T07:22:01;13.28;;;9.00;;
34204;SDS011;20471;49.680;20.074;2022-10-26T07:24:28;18.92;;;9.83;;
34204;SDS011;20471;49.680;20.074;2022-10-26T07:26:56;15.00;;;8.93;;
34204;SDS011;20471;49.680;20.074;2022-10-26T07:29:24;15.95;;;8.65;;
34204;SDS011;20471;49.680;20.074;2022-10-26T07:31:51;18.98;;;8.80;;
34204;SDS011;20471;49.680;20.074;2022-10-26T07:34:18;18.05;;;8.55;;
34204;SDS011;20471;49.680;20.074;2022-10-26T07:36:45;16.93;;;8.83;;
34204;SDS011;20471;49.680;20.074;2022-10-26T07:39:13;14.03;;;8.85;;
34204;SDS011;20471;49.680;20.074;2022-10-26T07:41:40;15.60;;;8.48;;
34204;SDS011;20471;49.680;20.074;2022-10-26T07:44:07;14.70;;;8.00;;
34204;SDS011;20471;49.680;20.074;2022-10-26T07:46:33;11.60;;;8.38;;
34204;SDS011;20471;49.680;20.074;2022-10-26T07:49:00;18.32;;;9.03;;
34204;SDS011;20471;49.680;20.074;2022-10-26T07:51:27;18.10;;;8.10;;
34204;SDS011;20471;49.680;20.074;2022-10-26T07:53:54;17.73;;;9.53;;
34204;SDS011;20471;49.680;20.074;2022-10-26T07:56:20;15.40;;;9.00;;
34204;SDS011;20471;49.680;20.074;2022-10-26T07:58:47;17.50;;;10.18;;
34204;SDS011;20471;49.680;20.074;2022-10-26T08:01:14;19.73;;;10.35;;
34204;SDS011;20471;49.680;20.074;2022-10-26T08:03:41;21.90;;;10.13;;
34204;SDS011;20471;49.680;20.074;2022-10-26T08:06:08;17.35;;;8.63;;
34204;SDS011;20471;49.680;20.074;2022-10-26T08:08:35;17.60;;;8.48;;
34204;SDS011;20471;49.680;20.074;2022-10-26T08:11:03;13.85;;;8.63;;
34204;SDS011;20471;49.680;20.074;2022-10-26T08:13:31;12.88;;;7.70;;
34204;SDS011;20471;49.680;20.074;2022-10-26T08:16:00;13.35;;;7.55;;
34204;SDS011;20471;49.680;20.074;2022-10-26T08:18:29;12.25;;;7.20;;
34204;SDS011;20471;49.680;20.074;2022-10-26T08:21:01;14.33;;;6.65;;
34204;SDS011;20471;49.680;20.074;2022-10-26T08:23:34;12.78;;;6.72;;
34204;SDS011;20471;49.680;20.074;2022-10-26T08:26:01;10.43;;;4.70;;
34204;SDS011;20471;49.680;20.074;2022-10-26T08:28:28;7.78;;;3.15;;
34204;SDS011;20471;49.680;20.074;2022-10-26T08:30:56;7.55;;;3.30;;
34204;SDS011;20471;49.680;20.074;2022-10-26T08:33:23;6.35;;;3.20;;
34204;SDS011;20471;49.680;20.074;2022-10-26T08:38:27;10.98;;;3.60;;
34204;SDS011;20471;49.680;20.074;2022-10-26T08:40:55;10.68;;;4.00;;
34204;SDS011;20471;49.680;20.074;2022-10-26T08:43:30;6.30;;;3.95;;
34204;SDS011;20471;49.680;20.074;2022-10-26T08:48:43;9.38;;;3.80;;
34204;SDS011;20471;49.680;20.074;2022-10-26T08:51:17;7.55;;;3.72;;
34204;SDS011;20471;49.680;20.074;2022-10-26T08:56:39;11.12;;;3.65;;
34204;SDS011;20471;49.680;20.074;2022-10-26T08:59:17;8.43;;;3.42;;
34204;SDS011;20471;49.680;20.074;2022-10-26T09:02:03;9.45;;;3.40;;
34204;SDS011;20471;49.680;20.074;2022-10-26T09:04:38;11.03;;;3.70;;
34204;SDS011;20471;49.680;20.074;2022-10-26T09:12:53;6.20;;;3.62;;
34204;SDS011;20471;49.680;20.074;2022-10-26T09:24:06;12.20;;;5.92;;
34204;SDS011;20471;49.680;20.074;2022-10-26T09:26:54;5.08;;;2.90;;
34204;SDS011;20471;49.680;20.074;2022-10-26T09:32:14;10.93;;;5.87;;
34204;SDS011;20471;49.680;20.074;2022-10-26T09:35:02;6.97;;;3.67;;
34204;SDS011;20471;49.680;20.074;2022-10-26T09:37:35;7.62;;;3.50;;
34204;SDS011;20471;49.680;20.074;2022-10-26T09:40:17;8.38;;;3.58;;
34204;SDS011;20471;49.680;20.074;2022-10-26T09:45:52;7.50;;;3.90;;
34204;SDS011;20471;49.680;20.074;2022-10-26T09:48:38;11.18;;;5.42;;
34204;SDS011;20471;49.680;20.074;2022-10-26T09:51:10;11.78;;;5.03;;
34204;SDS011;20471;49.680;20.074;2022-10-26T09:53:36;13.85;;;6.80;;
34204;SDS011;20471;49.680;20.074;2022-10-26T09:56:04;9.68;;;4.30;;
34204;SDS011;20471;49.680;20.074;2022-10-26T10:01:19;49.20;;;4.62;;
34204;SDS011;20471;49.680;20.074;2022-10-26T10:04:15;9.33;;;2.02;;
34204;SDS011;20471;49.680;20.074;2022-10-26T10:06:42;6.53;;;2.98;;
34204;SDS011;20471;49.680;20.074;2022-10-26T10:09:11;3.58;;;1.60;;
34204;SDS011;20471;49.680;20.074;2022-10-26T10:14:28;3.25;;;1.55;;
34204;SDS011;20471;49.680;20.074;2022-10-26T10:17:02;2.15;;;1.10;;
34204;SDS011;20471;49.680;20.074;2022-10-26T10:19:36;2.55;;;1.40;;
34204;SDS011;20471;49.680;20.074;2022-10-26T10:24:57;5.17;;;1.50;;
34204;SDS011;20471;49.680;20.074;2022-10-26T10:27:26;5.20;;;1.47;;
34204;SDS011;20471;49.680;20.074;2022-10-26T10:29:55;5.20;;;2.05;;
34204;SDS011;20471;49.680;20.074;2022-10-26T10:32:24;2.15;;;1.50;;
34204;SDS011;20471;49.680;20.074;2022-10-26T10:34:55;2.83;;;1.40;;
34204;SDS011;20471;49.680;20.074;2022-10-26T10:39:59;2.83;;;1.47;;
34204;SDS011;20471;49.680;20.074;2022-10-26T10:45:02;2.20;;;1.30;;
34204;SDS011;20471;49.680;20.074;2022-10-26T10:47:32;3.10;;;1.70;;
34204;SDS011;20471;49.680;20.074;2022-10-26T10:50:01;5.08;;;1.98;;
34204;SDS011;20471;49.680;20.074;2022-10-26T10:52:35;5.67;;;1.90;;
34204;SDS011;20471;49.680;20.074;2022-10-26T10:55:15;5.30;;;2.17;;
34204;SDS011;20471;49.680;20.074;2022-10-26T11:00:42;6.35;;;2.17;;
34204;SDS011;20471;49.680;20.074;2022-10-26T11:06:14;6.30;;;1.75;;
34204;SDS011;20471;49.680;20.074;2022-10-26T11:11:35;3.62;;;1.72;;
34204;SDS011;20471;49.680;20.074;2022-10-26T11:14:16;1.65;;;1.40;;
34204;SDS011;20471;49.680;20.074;2022-10-26T11:16:58;3.42;;;1.50;;
34204;SDS011;20471;49.680;20.074;2022-10-26T11:19:36;3.87;;;1.82;;
34204;SDS011;20471;49.680;20.074;2022-10-26T11:25:02;4.80;;;1.95;;
34204;SDS011;20471;49.680;20.074;2022-10-26T11:30:18;5.78;;;2.70;;
34204;SDS011;20471;49.680;20.074;2022-10-26T11:38:21;4.67;;;1.10;;
34204;SDS011;20471;49.680;20.074;2022-10-26T11:47:18;2.47;;;1.05;;
34204;SDS011;20471;49.680;20.074;2022-10-26T11:52:53;1.87;;;1.00;;
34204;SDS011;20471;49.680;20.074;2022-10-26T11:55:24;2.55;;;1.40;;
34204;SDS011;20471;49.680;20.074;2022-10-26T11:57:51;3.20;;;1.20;;
34204;SDS011;20471;49.680;20.074;2022-10-26T12:00:20;3.33;;;1.40;;
34204;SDS011;20471;49.680;20.074;2022-10-26T12:13:45;6.50;;;3.12;;
34204;SDS011;20471;49.680;20.074;2022-10-26T12:21:58;6.55;;;2.47;;
34204;SDS011;20471;49.680;20.074;2022-10-26T12:24:26;7.03;;;2.02;;
34204;SDS011;20471;49.680;20.074;2022-10-26T12:27:01;3.90;;;1.22;;
34204;SDS011;20471;49.680;20.074;2022-10-26T12:29:37;4.35;;;1.60;;
34204;SDS011;20471;49.680;20.074;2022-10-26T12:56:50;1.32;;;1.00;;
34204;SDS011;20471;49.680;20.074;2022-10-26T13:05:29;3.37;;;1.60;;
34204;SDS011;20471;49.680;20.074;2022-10-26T13:08:24;3.25;;;1.50;;
34204;SDS011;20471;49.680;20.074;2022-10-26T13:11:00;3.45;;;1.98;;
34204;SDS011;20471;49.680;20.074;2022-10-26T13:13:32;4.85;;;2.50;;
34204;SDS011;20471;49.680;20.074;2022-10-26T13:16:00;5.15;;;2.90;;
34204;SDS011;20471;49.680;20.074;2022-10-26T13:18:29;8.03;;;3.37;;
34204;SDS011;20471;49.680;20.074;2022-10-26T13:26:30;5.97;;;3.67;;
34204;SDS011;20471;49.680;20.074;2022-10-26T13:28:59;7.90;;;3.37;;
34204;SDS011;20471;49.680;20.074;2022-10-26T13:34:16;5.15;;;2.70;;
34204;SDS011;20471;49.680;20.074;2022-10-26T13:36:48;4.03;;;2.05;;
34204;SDS011;20471;49.680;20.074;2022-10-26T13:39:42;2.92;;;2.00;;
34204;SDS011;20471;49.680;20.074;2022-10-26T13:42:14;4.58;;;1.92;;
34204;SDS011;20471;49.680;20.074;2022-10-26T13:45:02;2.37;;;1.77;;
34204;SDS011;20471;49.680;20.074;2022-10-26T13:47:49;2.47;;;1.65;;
34204;SDS011;20471;49.680;20.074;2022-10-26T13:59:01;2.30;;;1.50;;
34204;SDS011;20471;49.680;20.074;2022-10-26T14:01:34;4.37;;;1.82;;
34204;SDS011;20471;49.680;20.074;2022-10-26T14:04:17;4.53;;;1.77;;
34204;SDS011;20471;49.680;20.074;2022-10-26T14:06:53;2.45;;;1.60;;
34204;SDS011;20471;49.680;20.074;2022-10-26T14:09:20;4.97;;;1.82;;
34204;SDS011;20471;49.680;20.074;2022-10-26T14:11:48;2.67;;;1.40;;
34204;SDS011;20471;49.680;20.074;2022-10-26T14:14:28;4.65;;;1.57;;
34204;SDS011;20471;49.680;20.074;2022-10-26T14:16:58;5.15;;;2.25;;
34204;SDS011;20471;49.680;20.074;2022-10-26T14:19:27;5.42;;;2.17;;
34204;SDS011;20471;49.680;20.074;2022-10-26T14:21:57;5.00;;;1.70;;
34204;SDS011;20471;49.680;20.074;2022-10-26T14:24:29;4.83;;;2.30;;
34204;SDS011;20471;49.680;20.074;2022-10-26T14:26:59;5.53;;;2.65;;
34204;SDS011;20471;49.680;20.074;2022-10-26T14:29:30;3.83;;;2.10;;
34204;SDS011;20471;49.680;20.074;2022-10-26T14:31:57;6.22;;;2.60;;
34204;SDS011;20471;49.680;20.074;2022-10-26T14:34:24;7.12;;;3.00;;
34204;SDS011;20471;49.680;20.074;2022-10-26T14:36:53;8.58;;;3.10;;
34204;SDS011;20471;49.680;20.074;2022-10-26T14:39:31;7.45;;;2.65;;
34204;SDS011;20471;49.680;20.074;2022-10-26T14:42:19;5.95;;;3.25;;
34204;SDS011;20471;49.680;20.074;2022-10-26T14:45:00;12.05;;;5.00;;
34204;SDS011;20471;49.680;20.074;2022-10-26T14:47:28;17.48;;;7.22;;
34204;SDS011;20471;49.680;20.074;2022-10-26T14:50:00;16.10;;;8.98;;
34204;SDS011;20471;49.680;20.074;2022-10-26T14:52:29;17.50;;;8.85;;
34204;SDS011;20471;49.680;20.074;2022-10-26T14:57:38;18.12;;;11.05;;
34204;SDS011;20471;49.680;20.074;2022-10-26T15:00:20;19.90;;;11.22;;
34204;SDS011;20471;49.680;20.074;2022-10-26T15:02:50;16.07;;;8.23;;
34204;SDS011;20471;49.680;20.074;2022-10-26T15:07:58;19.90;;;9.13;;
34204;SDS011;20471;49.680;20.074;2022-10-26T15:13:15;22.45;;;11.63;;
34204;SDS011;20471;49.680;20.074;2022-10-26T15:15:57;18.95;;;8.00;;
34204;SDS011;20471;49.680;20.074;2022-10-26T15:18:37;18.90;;;7.28;;
34204;SDS011;20471;49.680;20.074;2022-10-26T15:21:06;12.33;;;7.35;;
34204;SDS011;20471;49.680;20.074;2022-10-26T15:23:42;12.82;;;6.95;;
34204;SDS011;20471;49.680;20.074;2022-10-26T15:26:09;13.45;;;7.78;;
34204;SDS011;20471;49.680;20.074;2022-10-26T15:28:37;16.00;;;8.73;;
34204;SDS011;20471;49.680;20.074;2022-10-26T15:33:41;21.23;;;10.80;;
34204;SDS011;20471;49.680;20.074;2022-10-26T15:36:19;18.17;;;10.20;;
34204;SDS011;20471;49.680;20.074;2022-10-26T15:38:50;19.07;;;10.70;;
34204;SDS011;20471;49.680;20.074;2022-10-26T15:41:27;23.95;;;11.75;;
34204;SDS011;20471;49.680;20.074;2022-10-26T15:44:01;28.02;;;13.65;;
34204;SDS011;20471;49.680;20.074;2022-10-26T15:46:31;25.77;;;13.38;;
34204;SDS011;20471;49.680;20.074;2022-10-26T15:49:02;28.80;;;14.03;;
34204;SDS011;20471;49.680;20.074;2022-10-26T15:51:30;31.37;;;16.23;;
34204;SDS011;20471;49.680;20.074;2022-10-26T15:53:57;28.38;;;16.25;;
34204;SDS011;20471;49.680;20.074;2022-10-26T15:56:28;34.80;;;17.20;;
34204;SDS011;20471;49.680;20.074;2022-10-26T15:58:55;30.70;;;16.70;;
34204;SDS011;20471;49.680;20.074;2022-10-26T16:01:24;28.67;;;17.00;;
34204;SDS011;20471;49.680;20.074;2022-10-26T16:03:53;30.10;;;19.05;;
34204;SDS011;20471;49.680;20.074;2022-10-26T16:09:00;41.42;;;24.67;;
34204;SDS011;20471;49.680;20.074;2022-10-26T16:11:29;49.58;;;27.90;;
34204;SDS011;20471;49.680;20.074;2022-10-26T16:13:57;44.65;;;27.02;;
34204;SDS011;20471;49.680;20.074;2022-10-26T16:16:24;51.73;;;25.15;;
34204;SDS011;20471;49.680;20.074;2022-10-26T16:18:51;49.65;;;26.70;;
34204;SDS011;20471;49.680;20.074;2022-10-26T16:21:20;43.45;;;27.02;;
34204;SDS011;20471;49.680;20.074;2022-10-26T16:23:50;48.13;;;28.67;;
34204;SDS011;20471;49.680;20.074;2022-10-26T16:26:20;43.28;;;26.50;;
34204;SDS011;20471;49.680;20.074;2022-10-26T16:28:48;42.05;;;26.27;;
34204;SDS011;20471;49.680;20.074;2022-10-26T16:31:16;45.73;;;26.50;;
34204;SDS011;20471;49.680;20.074;2022-10-26T16:33:46;48.20;;;27.50;;
34204;SDS011;20471;49.680;20.074;2022-10-26T16:36:13;59.55;;;34.50;;
34204;SDS011;20471;49.680;20.074;2022-10-26T16:38:40;72.37;;;41.37;;
34204;SDS011;20471;49.680;20.074;2022-10-26T16:41:08;78.40;;;43.00;;
34204;SDS011;20471;49.680;20.074;2022-10-26T16:43:38;61.75;;;38.50;;
34204;SDS011;20471;49.680;20.074;2022-10-26T16:46:10;62.27;;;40.03;;
34204;SDS011;20471;49.680;20.074;2022-10-26T16:48:41;73.80;;;44.42;;
34204;SDS011;20471;49.680;20.074;2022-10-26T16:51:16;62.93;;;39.73;;
34204;SDS011;20471;49.680;20.074;2022-10-26T16:53:49;58.73;;;37.05;;
34204;SDS011;20471;49.680;20.074;2022-10-26T16:56:20;60.50;;;37.67;;
34204;SDS011;20471;49.680;20.074;2022-10-26T16:58:49;66.90;;;38.42;;
34204;SDS011;20471;49.680;20.074;2022-10-26T17:01:16;75.57;;;44.77;;
34204;SDS011;20471;49.680;20.074;2022-10-26T17:03:46;77.30;;;43.50;;
34204;SDS011;20471;49.680;20.074;2022-10-26T17:06:14;60.35;;;36.30;;
34204;SDS011;20471;49.680;20.074;2022-10-26T17:08:42;62.43;;;34.67;;
34204;SDS011;20471;49.680;20.074;2022-10-26T17:11:10;59.48;;;34.53;;
34204;SDS011;20471;49.680;20.074;2022-10-26T17:13:43;59.18;;;35.58;;
34204;SDS011;20471;49.680;20.074;2022-10-26T17:16:13;56.77;;;33.20;;
34204;SDS011;20471;49.680;20.074;2022-10-26T17:18:43;55.30;;;31.57;;
34204;SDS011;20471;49.680;20.074;2022-10-26T17:21:12;55.90;;;31.37;;
34204;SDS011;20471;49.680;20.074;2022-10-26T17:23:41;59.65;;;33.55;;
34204;SDS011;20471;49.680;20.074;2022-10-26T17:26:09;56.15;;;33.78;;
34204;SDS011;20471;49.680;20.074;2022-10-26T17:28:38;58.33;;;34.33;;
34204;SDS011;20471;49.680;20.074;2022-10-26T17:31:06;55.45;;;33.42;;
34204;SDS011;20471;49.680;20.074;2022-10-26T17:33:37;57.38;;;34.92;;
34204;SDS011;20471;49.680;20.074;2022-10-26T17:36:05;53.23;;;34.50;;
34204;SDS011;20471;49.680;20.074;2022-10-26T17:38:34;60.83;;;36.93;;
34204;SDS011;20471;49.680;20.074;2022-10-26T17:41:05;65.32;;;37.23;;
34204;SDS011;20471;49.680;20.074;2022-10-26T17:43:35;61.68;;;35.23;;
34204;SDS011;20471;49.680;20.074;2022-10-26T17:46:05;60.33;;;34.63;;
34204;SDS011;20471;49.680;20.074;2022-10-26T17:48:41;61.33;;;31.50;;
34204;SDS011;20471;49.680;20.074;2022-10-26T17:51:12;51.88;;;30.37;;
34204;SDS011;20471;49.680;20.074;2022-10-26T17:53:46;47.70;;;27.80;;
34204;SDS011;20471;49.680;20.074;2022-10-26T17:56:18;48.15;;;29.00;;
34204;SDS011;20471;49.680;20.074;2022-10-26T17:58:51;52.80;;;33.10;;
34204;SDS011;20471;49.680;20.074;2022-10-26T18:01:23;49.23;;;28.83;;
34204;SDS011;20471;49.680;20.074;2022-10-26T18:03:51;41.20;;;25.27;;
34204;SDS011;20471;49.680;20.074;2022-10-26T18:06:18;47.13;;;30.12;;
34204;SDS011;20471;49.680;20.074;2022-10-26T18:08:47;62.27;;;35.10;;
34204;SDS011;20471;49.680;20.074;2022-10-26T18:11:14;60.43;;;36.38;;
34204;SDS011;20471;49.680;20.074;2022-10-26T18:13:45;69.15;;;39.48;;
34204;SDS011;20471;49.680;20.074;2022-10-26T18:16:17;61.35;;;39.90;;
34204;SDS011;20471;49.680;20.074;2022-10-26T18:18:47;65.03;;;42.55;;
34204;SDS011;20471;49.680;20.074;2022-10-26T18:21:17;52.60;;;33.98;;
34204;SDS011;20471;49.680;20.074;2022-10-26T18:23:45;53.28;;;30.52;;